Hilda Lab — WKDT — position and weather

sailwx.info

Track history (hours):
 
Tides and Currents Weather Stations Pressure Air Temp Water Temp Dewpoint Dewpoint Depression Visibility Wind Speed Wind Dir Waves Ship Positions

Hilda Lab

Owner: LABORDE MARINE SERVICES LLC, MORGAN CITY, LA. More information available from US FCC via Universal Licensing System and Coast Guard Vessel Documentation Center.

Last reported at 2017-Sep-24 17:55 UTC. Time now 2017-Nov-22 12:41 UTC.
Position N 29°28' W 090°43'.
Warning: this ship's position is 58 days out of date.

Length 87 m; draft 4 m.

Type: . MMSI: 338536000.

Date/timePositionNaut miles runAvg speedWind from/ knotsBaromVisibWave heightAir tempDewpointWater temp
2017-Sep-24 17:55N 29°28' W 090°43'3 6.8
2017-Sep-24 17:30N 29°31' W 090°43'3 5.4
2017-Sep-24 17:00N 29°33' W 090°42'1 2.8
2017-Sep-24 16:30N 29°34' W 090°44'2 4.7
2017-Sep-24 16:00N 29°32' W 090°46'2 5.0
2017-Sep-24 15:30N 29°32' W 090°49'3 5.3
2017-Sep-24 15:00N 29°32' W 090°52'3 5.5
2017-Sep-24 14:30N 29°33' W 090°55'3 5.6
2017-Sep-24 14:00N 29°35' W 090°57'3 4.9
2017-Sep-24 13:28N 29°37' W 090°59'  
Track history (hours):
 
Tides and Currents Weather Stations Pressure Air Temp Water Temp Dewpoint Dewpoint Depression Visibility Wind Speed Wind Dir Waves Ship Positions

Hilda Lab

Owner: LABORDE MARINE SERVICES LLC, MORGAN CITY, LA. More information available from US FCC via Universal Licensing System and Coast Guard Vessel Documentation Center.

Last reported at 2017-Sep-24 17:55 UTC. Time now 2017-Nov-22 12:41 UTC.
Position N 29°28' W 090°43'.
Warning: this ship's position is 58 days out of date.

Length 87 m; draft 4 m.

Type: . MMSI: 338536000.

Date/timePositionNaut miles runAvg speedWind from/ knotsBaromVisibWave heightAir tempDewpointWater temp
2017-Sep-24 17:55N 29°28' W 090°43'3 6.8
2017-Sep-24 17:30N 29°31' W 090°43'3 5.4
2017-Sep-24 17:00N 29°33' W 090°42'1 2.8
2017-Sep-24 16:30N 29°34' W 090°44'2 4.7
2017-Sep-24 16:00N 29°32' W 090°46'2 5.0
2017-Sep-24 15:30N 29°32' W 090°49'3 5.3
2017-Sep-24 15:00N 29°32' W 090°52'3 5.5
2017-Sep-24 14:30N 29°33' W 090°55'3 5.6
2017-Sep-24 14:00N 29°35' W 090°57'3 4.9
2017-Sep-24 13:28N 29°37' W 090°59'  

Dump ship's entire track history